Time;durP1;ratioP1;P1;durP2;ratioP2;P2;SDS_P1;SDS_P2;PMS_P1;PMS_P2;Temp;Humidity;BMP_temperature;BMP_pressure;BME280_temperature;BME280_humidity;BME280_pressure;Samples;Min_cycle;Max_cycle;Signal;HPM_P1;HPM_P2
2022/03/19 00:02:23;;;;;;;10.82;4.20;;;;;;;2.76;41.69;101828.78;5027739;28;20088;-53
2022/03/19 00:04:49;;;;;;;8.82;4.03;;;;;;;2.77;41.52;101827.09;5028154;28;20053;-55
2022/03/19 00:07:15;;;;;;;10.82;4.10;;;;;;;2.79;41.64;101828.00;5027904;28;20037;-53
2022/03/19 00:09:42;;;;;;;8.15;4.05;;;;;;;2.77;41.70;101827.97;5027260;28;20087;-55
2022/03/19 00:12:08;;;;;;;9.10;4.20;;;;;;;2.80;41.59;101819.47;5028035;28;20048;-55
2022/03/19 00:14:34;;;;;;;10.93;4.00;;;;;;;2.82;41.67;101828.09;5026946;28;21993;-52
2022/03/19 00:17:00;;;;;;;10.35;3.85;;;;;;;2.77;41.93;101833.09;5029638;28;20133;-54
2022/03/19 00:19:27;;;;;;;12.77;4.28;;;;;;;2.76;41.84;101833.91;5030137;28;20128;-57
2022/03/19 00:21:53;;;;;;;7.80;3.70;;;;;;;2.75;42.17;101828.72;5028426;28;20489;-53
2022/03/19 00:24:19;;;;;;;15.55;4.35;;;;;;;2.72;42.20;101834.63;5028598;28;20071;-55
2022/03/19 00:26:45;;;;;;;8.45;4.07;;;;;;;2.71;42.32;101824.31;5029582;28;20216;-54
2022/03/19 00:29:10;;;;;;;10.60;4.10;;;;;;;2.64;42.22;101820.69;5006656;28;20045;-55
2022/03/19 00:31:36;;;;;;;13.73;4.22;;;;;;;2.68;42.15;101826.78;5014417;28;20037;-54
2022/03/19 00:34:02;;;;;;;10.82;4.13;;;;;;;2.51;42.39;101805.72;5029154;28;20527;-56
2022/03/19 00:36:28;;;;;;;9.30;4.03;;;;;;;2.68;42.13;101812.25;5029560;28;20071;-56
2022/03/19 00:38:54;;;;;;;15.93;4.45;;;;;;;2.59;42.09;101811.97;5029904;28;20037;-57
2022/03/19 00:41:20;;;;;;;14.88;4.45;;;;;;;2.70;42.25;101825.13;5012408;28;20419;-54
2022/03/19 00:43:46;;;;;;;12.40;4.72;;;;;;;2.69;42.22;101825.97;5029363;28;20515;-56
2022/03/19 00:46:13;;;;;;;10.20;4.03;;;;;;;2.68;42.42;101834.47;5029500;28;20501;-55
2022/03/19 00:48:40;;;;;;;9.95;4.10;;;;;;;2.65;42.27;101830.13;5028100;28;20049;-53
2022/03/19 00:51:06;;;;;;;14.02;5.43;;;;;;;2.65;42.41;101830.13;5028365;28;20132;-55
2022/03/19 00:53:31;;;;;;;9.00;4.60;;;;;;;2.63;42.32;101829.19;5027479;28;20499;-54
2022/03/19 00:55:57;;;;;;;10.93;4.40;;;;;;;2.61;42.97;101828.28;5026913;28;20464;-56
2022/03/19 00:58:23;;;;;;;10.25;4.60;;;;;;;2.61;42.89;101832.56;5027616;28;20045;-56
2022/03/19 01:00:49;;;;;;;11.40;4.53;;;;;;;2.59;42.83;101822.22;5028145;28;20052;-53
2022/03/19 01:03:15;;;;;;;9.93;4.93;;;;;;;2.61;42.93;101828.28;5027651;28;20132;-52
2022/03/19 01:05:42;;;;;;;12.10;5.13;;;;;;;2.61;42.80;101833.44;5026959;28;20045;-57
2022/03/19 01:08:08;;;;;;;9.80;4.63;;;;;;;2.44;42.91;101803.75;5028823;28;20037;-55
2022/03/19 01:10:35;;;;;;;10.73;4.88;;;;;;;2.61;43.32;101835.13;5028846;28;20068;-57
2022/03/19 01:13:03;;;;;;;17.75;5.35;;;;;;;2.58;43.33;101832.44;5028573;28;20041;-55
2022/03/19 01:15:29;;;;;;;15.38;5.15;;;;;;;2.56;43.22;101833.25;5011706;28;20422;-52
2022/03/19 01:17:55;;;;;;;12.02;4.82;;;;;;;2.55;43.22;101840.94;5029268;28;20072;-55
2022/03/19 01:20:21;;;;;;;15.30;5.15;;;;;;;2.51;43.31;101839.09;5029434;28;20046;-59
2022/03/19 01:22:48;;;;;;;12.18;5.20;;;;;;;2.48;43.19;101839.84;5028847;28;20056;-53
2022/03/19 01:25:15;;;;;;;12.65;5.63;;;;;;;2.48;43.18;101842.41;5028153;28;20156;-58
2022/03/19 01:27:43;;;;;;;12.85;5.28;;;;;;;2.47;43.38;101842.34;5029948;28;20068;-54
2022/03/19 01:30:11;;;;;;;18.35;5.95;;;;;;;2.41;42.98;101840.47;5033044;28;20100;-57
2022/03/19 01:32:37;;;;;;;16.08;5.13;;;;;;;2.45;43.19;101846.59;5048471;28;20048;-57
2022/03/19 01:35:04;;;;;;;14.13;5.65;;;;;;;2.34;43.55;101827.38;5031350;28;20033;-57
2022/03/19 01:37:30;;;;;;;11.23;5.22;;;;;;;2.43;43.13;101848.22;5032565;28;20037;-54
2022/03/19 01:39:56;;;;;;;12.75;5.57;;;;;;;2.43;43.37;101851.66;5032073;28;20072;-53
2022/03/19 01:42:23;;;;;;;9.45;5.28;;;;;;;2.40;43.23;101858.41;5031417;28;20090;-57
2022/03/19 01:44:49;;;;;;;10.32;5.60;;;;;;;2.38;43.59;101853.22;5032833;28;20132;-56
2022/03/19 01:47:15;;;;;;;13.25;5.55;;;;;;;2.34;43.22;101856.50;5032763;28;20172;-57
2022/03/19 01:49:41;;;;;;;12.60;5.40;;;;;;;2.34;43.34;101863.31;5032386;28;20041;-56
2022/03/19 01:52:07;;;;;;;8.60;4.68;;;;;;;2.32;43.27;101857.25;5032965;28;20087;-53
2022/03/19 01:54:35;;;;;;;9.07;4.68;;;;;;;2.31;43.24;101858.06;5031147;28;20417;-52
2022/03/19 01:57:02;;;;;;;11.55;4.78;;;;;;;2.20;43.18;101841.47;5031161;28;20107;-55
2022/03/19 01:59:32;;;;;;;11.77;5.03;;;;;;;2.13;43.62;101838.69;5030184;28;20079;-51
2022/03/19 02:01:59;;;;;;;13.48;4.93;;;;;;;2.26;43.37;101862.19;5030400;28;20793;-56
2022/03/19 02:04:24;;;;;;;15.65;5.45;;;;;;;2.09;43.45;101836.81;5031124;28;20049;-56
2022/03/19 02:06:50;;;;;;;21.70;6.00;;;;;;;2.22;43.51;101865.47;5030001;28;20045;-56
2022/03/19 02:09:16;;;;;;;15.40;4.68;;;;;;;2.18;43.77;101863.63;5030224;28;20045;-55
2022/03/19 02:11:42;;;;;;;14.80;4.80;;;;;;;2.14;43.69;101860.09;5031000;28;20456;-56
2022/03/19 02:14:08;;;;;;;13.95;4.38;;;;;;;2.03;43.67;101844.31;5031234;28;21692;-57
2022/03/19 02:16:34;;;;;;;15.30;4.65;;;;;;;1.99;43.83;101844.16;5030058;28;20037;-53
2022/03/19 02:19:00;;;;;;;12.07;4.45;;;;;;;2.05;44.13;101857.19;5031370;28;20053;-54
2022/03/19 02:21:25;;;;;;;10.93;4.03;;;;;;;2.06;43.85;101861.50;5030781;28;20480;-57
2022/03/19 02:26:45;;;;;;;11.25;3.92;;;;;;;2.03;43.75;101857.16;5031338;28;20152;-57
2022/03/19 02:29:11;;;;;;;13.02;3.92;;;;;;;2.01;44.06;101852.75;5009962;28;20045;-56
2022/03/19 02:31:40;;;;;;;10.35;4.03;;;;;;;1.99;43.93;101857.00;5026826;28;20052;-56
2022/03/19 02:34:09;;;;;;;7.80;3.65;;;;;;;1.96;43.96;101851.72;5035081;28;20508;-54
2022/03/19 02:36:40;;;;;;;15.35;4.00;;;;;;;1.97;43.63;101864.63;5030807;28;20069;-56
2022/03/19 02:39:18;;;;;;;9.80;3.85;;;;;;;1.97;43.95;101861.19;5031299;28;20037;-57
2022/03/19 02:41:48;;;;;;;10.43;3.72;;;;;;;1.86;44.07;101840.28;5030823;28;20125;-56
2022/03/19 02:44:15;;;;;;;11.95;3.88;;;;;;;1.93;44.08;101857.66;5029451;28;20044;-55
2022/03/19 02:46:47;;;;;;;14.97;4.37;;;;;;;1.93;44.08;101860.22;5029122;28;20033;-53
2022/03/19 02:49:14;;;;;;;8.88;4.15;;;;;;;1.91;44.08;101859.28;5027345;28;20037;-56
2022/03/19 02:51:42;;;;;;;8.13;3.83;;;;;;;1.90;43.82;101857.53;5029940;28;20053;-55
2022/03/19 02:54:10;;;;;;;9.27;4.03;;;;;;;1.76;43.66;101845.03;5030286;28;20073;-52
2022/03/19 02:56:38;;;;;;;14.82;3.75;;;;;;;1.85;43.96;101860.72;5030607;28;20044;-52
2022/03/19 02:59:08;;;;;;;8.65;4.00;;;;;;;1.88;44.09;101866.00;4970777;28;1669682;-55
2022/03/19 03:01:35;;;;;;;10.02;3.80;;;;;;;1.85;43.86;101865.88;5031716;28;20048;-55
2022/03/19 03:04:01;;;;;;;8.13;3.65;;;;;;;1.83;44.15;101862.38;5030533;28;20383;-56
2022/03/19 03:06:29;;;;;;;9.40;3.70;;;;;;;1.79;44.42;101866.50;5031055;28;20122;-57
2022/03/19 03:08:56;;;;;;;6.63;3.92;;;;;;;1.66;44.59;101843.84;5030760;28;20044;-53
2022/03/19 03:11:21;;;;;;;11.70;4.25;;;;;;;1.78;44.52;101863.91;5031396;28;20042;-55
2022/03/19 03:13:47;;;;;;;9.48;4.07;;;;;;;1.59;44.41;101842.72;5031231;28;20041;-55
2022/03/19 03:16:13;;;;;;;7.90;3.63;;;;;;;1.69;44.63;101861.88;5030132;28;20520;-53
2022/03/19 03:18:39;;;;;;;7.55;3.70;;;;;;;1.70;44.20;101863.63;5030317;28;20056;-56
2022/03/19 03:21:05;;;;;;;9.02;3.72;;;;;;;1.70;44.12;101866.19;5030902;28;20099;-53
2022/03/19 03:23:31;;;;;;;7.93;3.50;;;;;;;1.69;44.34;101867.88;5030971;28;20107;-56
2022/03/19 03:25:57;;;;;;;10.57;3.65;;;;;;;1.66;44.61;101872.91;5030920;28;20424;-53
2022/03/19 03:28:23;;;;;;;6.72;3.83;;;;;;;1.56;44.28;101852.00;5031285;28;20045;-55
2022/03/19 03:30:49;;;;;;;10.25;3.65;;;;;;;1.67;44.64;101869.50;5031137;28;20045;-58
2022/03/19 03:33:15;;;;;;;13.07;4.70;;;;;;;1.61;44.19;101860.75;5031281;28;20513;-57
2022/03/19 03:35:41;;;;;;;8.90;3.58;;;;;;;1.68;44.08;101878.06;5030672;28;20040;-55
2022/03/19 03:38:07;;;;;;;9.15;3.63;;;;;;;1.67;44.18;101876.34;5030769;28;20048;-53
2022/03/19 03:40:33;;;;;;;9.82;3.67;;;;;;;1.57;44.49;101871.69;5029667;28;20041;-57
2022/03/19 03:42:58;;;;;;;16.60;3.38;;;;;;;1.65;44.62;101886.53;5030518;28;21609;-55
2022/03/19 03:45:28;;;;;;;9.68;3.83;;;;;;;1.64;44.25;101878.78;5029388;28;20115;-57
2022/03/19 03:47:54;;;;;;;8.80;4.10;;;;;;;1.65;44.25;101888.22;5031007;28;20099;-57
2022/03/19 03:50:20;;;;;;;11.02;6.18;;;;;;;1.45;44.35;101849.03;5030553;28;20041;-57
2022/03/19 03:52:46;;;;;;;12.07;5.82;;;;;;;1.68;44.38;101888.31;5030197;28;20132;-56
2022/03/19 03:55:12;;;;;;;9.98;5.05;;;;;;;1.68;44.61;101885.75;5012723;28;20461;-55
2022/03/19 03:57:38;;;;;;;10.18;4.63;;;;;;;1.57;44.76;101872.53;5029314;28;20065;-55
2022/03/19 04:00:05;;;;;;;9.93;5.03;;;;;;;1.71;44.51;101885.91;5030106;28;20080;-53
2022/03/19 04:02:38;;;;;;;13.32;4.32;;;;;;;1.76;44.89;101893.75;5013687;28;20045;-56
2022/03/19 04:05:05;;;;;;;17.50;4.35;;;;;;;1.75;44.88;101886.88;5029296;28;20041;-53
2022/03/19 04:07:31;;;;;;;9.40;4.30;;;;;;;1.68;45.11;101891.78;5028888;28;20040;-54
2022/03/19 04:09:57;;;;;;;11.38;4.82;;;;;;;1.64;45.01;101874.53;5029105;28;20131;-55
2022/03/19 04:12:23;;;;;;;16.25;4.78;;;;;;;1.77;45.31;101898.06;5030268;28;20045;-56
2022/03/19 04:14:49;;;;;;;10.45;4.85;;;;;;;1.81;45.07;101894.78;5030411;28;20045;-53
2022/03/19 04:17:15;;;;;;;15.02;4.97;;;;;;;1.82;45.02;101907.69;5030014;28;20147;-57
2022/03/19 04:19:42;;;;;;;11.57;4.57;;;;;;;1.86;44.91;101899.28;5030274;28;20037;-51
2022/03/19 04:22:07;;;;;;;21.30;4.95;;;;;;;1.87;45.12;101902.72;5029746;28;20509;-56
2022/03/19 04:24:33;;;;;;;9.57;4.68;;;;;;;1.89;44.79;101904.50;5029858;28;20048;-55
2022/03/19 04:26:59;;;;;;;10.40;5.22;;;;;;;1.83;44.75;101891.47;5030186;28;20045;-56
2022/03/19 04:29:25;;;;;;;14.75;4.47;;;;;;;1.99;44.27;101900.59;5030188;28;20045;-56
2022/03/19 04:31:50;;;;;;;13.88;4.45;;;;;;;2.06;43.92;101902.53;5045549;28;20167;-55
2022/03/19 04:34:16;;;;;;;15.85;4.97;;;;;;;2.13;43.78;101901.97;5029554;28;20041;-56
2022/03/19 04:36:42;;;;;;;9.13;4.45;;;;;;;2.17;43.88;101901.22;5028572;28;20098;-56
2022/03/19 04:39:08;;;;;;;8.52;4.30;;;;;;;2.20;43.63;101905.63;5011441;28;20504;-52
2022/03/19 04:41:36;;;;;;;10.38;4.28;;;;;;;2.21;43.55;101903.09;5028734;28;20575;-56
2022/03/19 04:44:02;;;;;;;14.63;4.63;;;;;;;2.24;43.29;101908.34;5029830;28;20090;-53
2022/03/19 04:46:28;;;;;;;12.25;4.55;;;;;;;2.30;43.48;101910.25;5012475;28;20045;-55
2022/03/19 04:48:54;;;;;;;12.98;5.32;;;;;;;2.22;43.46;101888.56;5026315;28;20214;-55
2022/03/19 04:51:21;;;;;;;9.63;4.32;;;;;;;2.40;43.87;101909.75;5013656;28;20548;-60
2022/03/19 04:53:50;;;;;;;11.45;4.80;;;;;;;2.46;43.65;101917.66;5059878;28;20045;-56
2022/03/19 04:56:22;;;;;;;10.40;4.60;;;;;;;2.51;43.48;101913.56;5010547;28;20054;-57
2022/03/19 04:58:53;;;;;;;13.55;4.35;;;;;;;2.61;43.20;101917.31;4999830;28;20057;-55
2022/03/19 05:01:19;;;;;;;20.85;5.40;;;;;;;2.69;43.10;101921.84;5010797;28;20054;-54
2022/03/19 05:03:45;;;;;;;12.30;4.22;;;;;;;2.74;42.82;101916.88;5014723;28;20049;-58
2022/03/19 05:06:11;;;;;;;10.45;3.83;;;;;;;2.79;42.55;101930.75;5026113;28;20053;-54
2022/03/19 05:08:37;;;;;;;14.07;4.38;;;;;;;2.84;42.52;101931.75;5020869;28;20505;-53
2022/03/19 05:11:17;;;;;;;10.98;4.53;;;;;;;2.86;41.71;101925.88;5015997;28;20041;-57
2022/03/19 05:13:44;;;;;;;14.40;3.75;;;;;;;2.97;41.84;101926.22;5014488;28;20038;-57
2022/03/19 05:16:11;;;;;;;9.73;3.80;;;;;;;3.06;41.55;101936.78;5013375;28;20069;-55
2022/03/19 05:18:37;;;;;;;11.02;3.88;;;;;;;2.92;41.38;101895.25;5026699;28;20047;-55
2022/03/19 05:21:03;;;;;;;6.72;4.15;;;;;;;3.20;41.17;101935.50;5030194;28;20045;-55
2022/03/19 05:23:29;;;;;;;8.80;3.78;;;;;;;3.29;40.85;101937.53;5032743;28;20153;-54
2022/03/19 05:25:55;;;;;;;18.73;4.43;;;;;;;3.37;40.88;101944.63;5024106;28;20136;-55
2022/03/19 05:28:21;;;;;;;13.82;4.97;;;;;;;3.47;40.94;101942.34;5034211;28;20048;-55
2022/03/19 05:30:47;;;;;;;12.18;4.50;;;;;;;3.55;40.69;101949.47;5033825;28;20056;-57
2022/03/19 05:33:14;;;;;;;15.57;4.22;;;;;;;3.61;40.51;101948.78;5031617;28;20043;-53
2022/03/19 05:35:40;;;;;;;18.55;4.55;;;;;;;3.67;40.13;101948.94;5033623;28;20041;-56
2022/03/19 05:38:06;;;;;;;18.55;5.03;;;;;;;3.68;40.17;101931.00;5032668;28;20111;-54
2022/03/19 05:40:31;;;;;;;12.52;4.50;;;;;;;3.95;39.96;101950.66;5032413;28;20445;-54
2022/03/19 05:42:57;;;;;;;13.60;4.55;;;;;;;3.94;39.92;101934.31;5033924;28;20080;-56
2022/03/19 05:45:23;;;;;;;13.90;4.72;;;;;;;4.07;39.69;101932.97;5033515;28;20041;-58
2022/03/19 05:47:49;;;;;;;14.18;4.70;;;;;;;4.31;39.13;101954.25;5032385;28;20073;-55
2022/03/19 05:50:15;;;;;;;11.93;3.97;;;;;;;4.50;38.65;101958.22;5033379;28;20505;-53
2022/03/19 05:52:45;;;;;;;16.30;4.15;;;;;;;4.82;38.64;101951.28;5032463;28;20029;-55
2022/03/19 05:55:11;;;;;;;10.88;5.00;;;;;;;5.29;37.65;101943.00;5033146;28;20123;-55
2022/03/19 05:57:37;;;;;;;21.58;5.43;;;;;;;5.80;36.52;101909.75;5031607;28;20412;-57
2022/03/19 06:00:04;;;;;;;17.63;5.15;;;;;;;7.02;34.84;101946.50;5032825;28;20053;-56
2022/03/19 06:02:42;;;;;;;15.27;5.10;;;;;;;8.07;33.39;101925.53;5031950;28;20140;-57
2022/03/19 06:05:08;;;;;;;16.23;5.05;;;;;;;8.91;32.14;101905.66;5032447;28;20119;-54
2022/03/19 06:07:34;;;;;;;16.00;5.32;;;;;;;9.99;30.29;101942.69;5032172;28;20095;-56
2022/03/19 06:09:59;;;;;;;14.90;4.85;;;;;;;10.93;29.20;101942.94;5033130;28;20045;-57
2022/03/19 06:12:25;;;;;;;14.32;5.00;;;;;;;11.84;28.27;101940.22;5031858;28;20495;-56
2022/03/19 06:14:53;;;;;;;13.45;4.93;;;;;;;12.64;26.44;101941.53;5032787;28;20119;-55
2022/03/19 06:17:20;;;;;;;22.00;5.38;;;;;;;13.40;25.81;101927.88;5033083;28;20091;-59
2022/03/19 06:19:46;;;;;;;19.08;5.15;;;;;;;13.89;24.74;101913.38;5031219;28;20073;-55
2022/03/19 06:22:11;;;;;;;11.93;4.50;;;;;;;14.78;24.02;101936.59;5031744;28;20083;-59
2022/03/19 06:24:37;;;;;;;16.80;5.00;;;;;;;15.54;23.00;101945.78;5032831;28;20045;-59
2022/03/19 06:27:04;;;;;;;19.77;5.20;;;;;;;16.13;22.27;101948.97;5032580;28;20161;-59
2022/03/19 06:29:30;;;;;;;29.92;7.28;;;;;;;16.66;21.76;101948.69;5027373;28;20053;-65
2022/03/19 06:31:58;;;;;;;18.58;5.35;;;;;;;17.09;21.14;101942.38;5058553;28;20416;-63
2022/03/19 06:34:24;;;;;;;14.45;5.38;;;;;;;17.66;20.50;101945.28;5032010;28;20402;-60
2022/03/19 06:39:34;;;;;;;14.25;5.90;;;;;;;18.75;19.05;101952.56;5029869;28;20095;-61
2022/03/19 06:42:00;;;;;;;12.40;5.70;;;;;;;19.23;18.72;101942.16;5025520;28;20041;-61
2022/03/19 06:44:26;;;;;;;12.65;4.60;;;;;;;19.80;18.24;101941.91;5032424;28;20049;-60
2022/03/19 06:46:52;;;;;;;17.20;6.18;;;;;;;20.47;17.34;101939.38;5031712;28;20567;-62
2022/03/19 06:49:18;;;;;;;14.30;5.10;;;;;;;21.00;16.73;101952.22;5032282;28;20045;-62
2022/03/19 06:51:43;;;;;;;8.60;4.97;;;;;;;21.27;16.48;101943.16;5030486;28;20045;-61
2022/03/19 06:54:09;;;;;;;12.95;5.20;;;;;;;21.53;16.24;101945.53;5022934;28;20037;-61
2022/03/19 06:56:35;;;;;;;9.45;4.55;;;;;;;21.87;15.83;101944.03;5013324;28;20041;-62
2022/03/19 06:59:01;;;;;;;22.70;5.30;;;;;;;22.25;15.33;101951.09;5017243;28;20142;-60
2022/03/19 07:01:27;;;;;;;10.93;4.85;;;;;;;22.64;15.16;101937.75;5015408;28;20182;-64
2022/03/19 07:03:53;;;;;;;11.52;5.30;;;;;;;22.93;14.94;101956.69;5020714;28;20104;-62
2022/03/19 07:06:20;;;;;;;23.60;6.53;;;;;;;23.35;14.35;101953.66;5036921;28;20095;-63
2022/03/19 07:08:46;;;;;;;18.73;5.45;;;;;;;23.43;14.37;101960.31;5025734;28;20486;-62
2022/03/19 07:11:11;;;;;;;24.60;5.88;;;;;;;23.44;14.44;101946.13;5031576;28;20069;-57
2022/03/19 07:13:37;;;;;;;17.05;5.75;;;;;;;23.67;14.01;101941.41;5031845;28;20110;-56
2022/03/19 07:16:04;;;;;;;13.13;5.95;;;;;;;23.79;13.91;101944.28;5013026;28;20159;-56
2022/03/19 07:18:31;;;;;;;15.52;5.85;;;;;;;24.30;13.63;101953.91;5030044;28;20128;-57
2022/03/19 07:20:56;;;;;;;14.30;5.82;;;;;;;24.65;13.47;101948.41;5018594;28;20045;-55
2022/03/19 07:23:22;;;;;;;13.30;5.60;;;;;;;24.91;13.19;101946.94;5013020;28;20041;-58
2022/03/19 07:25:48;;;;;;;23.48;5.90;;;;;;;25.40;12.78;101958.19;5024057;28;20046;-58
2022/03/19 07:28:17;;;;;;;11.90;5.95;;;;;;;25.72;12.76;101954.47;5029069;28;20106;-58
2022/03/19 07:30:43;;;;;;;30.63;7.18;;;;;;;26.11;12.43;101964.47;5031100;28;20045;-60
2022/03/19 07:33:09;;;;;;;19.77;5.70;;;;;;;26.64;12.21;101962.88;5032767;28;20124;-59
2022/03/19 07:35:35;;;;;;;18.08;5.15;;;;;;;26.79;11.77;101944.03;5025453;28;20137;-61
2022/03/19 07:38:02;;;;;;;21.85;5.97;;;;;;;27.39;11.49;101964.91;5030017;28;20045;-67
2022/03/19 07:43:13;;;;;;;20.40;6.20;;;;;;;27.95;11.38;101965.47;5032523;28;20164;-41
2022/03/19 07:45:40;;;;;;;10.18;4.75;;;;;;;28.08;11.04;101961.81;5029870;28;20043;-41
2022/03/19 07:48:06;;;;;;;16.45;5.97;;;;;;;28.24;11.25;101956.25;5031020;28;20128;-40
2022/03/19 07:50:32;;;;;;;12.55;5.35;;;;;;;28.63;10.81;101958.66;5029699;28;20095;-41
2022/03/19 07:52:58;;;;;;;17.10;5.32;;;;;;;28.73;10.74;101963.41;5004443;28;20112;-41
2022/03/19 07:55:25;;;;;;;15.43;4.97;;;;;;;28.82;10.64;101965.38;5006190;28;20426;-40
2022/03/19 07:57:51;;;;;;;10.40;5.07;;;;;;;28.74;10.49;101963.25;5022671;28;20501;-41
2022/03/19 08:00:17;;;;;;;21.10;5.60;;;;;;;28.42;10.85;101962.91;5029694;28;20918;-40
2022/03/19 08:02:43;;;;;;;14.90;5.05;;;;;;;28.30;10.69;101969.19;5058749;28;20129;-41
2022/03/19 08:05:09;;;;;;;15.63;5.68;;;;;;;28.02;10.77;101956.91;5029464;28;20049;-40
2022/03/19 08:07:37;;;;;;;10.35;4.30;;;;;;;27.86;10.94;101961.63;5023134;28;20042;-40
2022/03/19 08:10:07;;;;;;;16.58;5.47;;;;;;;28.03;11.05;101957.75;5022912;28;20424;-40
2022/03/19 08:12:34;;;;;;;12.77;4.30;;;;;;;28.25;11.09;101951.75;5011087;28;20453;-41
2022/03/19 08:15:02;;;;;;;14.60;4.70;;;;;;;28.44;10.96;101944.09;5053485;28;20126;-40
2022/03/19 08:17:29;;;;;;;15.75;5.07;;;;;;;28.95;10.59;101948.25;5019658;28;20048;-41
2022/03/19 08:19:58;;;;;;;10.68;4.40;;;;;;;29.23;10.55;101955.06;5027766;28;20128;-41
2022/03/19 08:22:25;;;;;;;8.65;4.40;;;;;;;29.42;10.22;101928.56;5026893;28;20524;-41
2022/03/19 08:24:52;;;;;;;8.50;4.78;;;;;;;29.67;10.11;101946.28;5031972;28;20077;-40
2022/03/19 08:27:18;;;;;;;12.75;4.60;;;;;;;29.98;9.79;101949.25;5029235;28;20091;-40
2022/03/19 08:29:44;;;;;;;9.45;4.95;;;;;;;30.07;9.69;101935.94;5028947;28;20029;-40
2022/03/19 08:32:10;;;;;;;13.13;4.55;;;;;;;30.16;10.05;101945.06;5028146;28;20048;-40
2022/03/19 08:34:37;;;;;;;13.43;4.80;;;;;;;30.13;9.87;101943.50;5019870;28;20124;-40
2022/03/19 08:37:03;;;;;;;8.05;4.38;;;;;;;30.00;9.97;101941.91;5053483;28;20041;-41
2022/03/19 08:42:14;;;;;;;16.33;5.05;;;;;;;30.31;9.79;101941.97;5028312;28;20124;-41
2022/03/19 08:44:39;;;;;;;15.40;5.30;;;;;;;30.33;9.77;101944.56;5032101;28;20144;-40
2022/03/19 08:47:05;;;;;;;22.63;6.05;;;;;;;30.60;9.69;101947.69;5033146;28;20045;-41
2022/03/19 08:49:31;;;;;;;13.38;5.88;;;;;;;30.64;9.74;101949.13;5025225;28;20071;-41
2022/03/19 08:51:57;;;;;;;9.35;4.78;;;;;;;31.14;9.65;101950.28;5028503;28;20509;-41
2022/03/19 08:54:23;;;;;;;9.15;5.05;;;;;;;31.64;9.05;101952.31;5016998;28;20069;-41
2022/03/19 08:56:50;;;;;;;13.93;5.50;;;;;;;31.61;9.09;101948.09;5027710;28;20513;-41
2022/03/19 08:59:16;;;;;;;13.13;4.90;;;;;;;31.34;8.97;101953.97;5021679;28;20058;-41
2022/03/19 09:01:44;;;;;;;6.93;4.38;;;;;;;31.44;9.08;101949.50;5024157;28;20041;-41
2022/03/19 09:04:11;;;;;;;11.52;5.38;;;;;;;31.40;9.21;101957.97;5030084;28;20467;-42
2022/03/19 09:06:38;;;;;;;11.73;4.63;;;;;;;31.46;9.12;101936.75;5026841;28;20037;-41
2022/03/19 09:09:05;;;;;;;10.25;4.63;;;;;;;31.48;9.44;101953.63;5028274;28;20042;-42
2022/03/19 09:11:32;;;;;;;6.75;4.35;;;;;;;31.17;9.27;101961.78;5020800;28;20759;-44
2022/03/19 09:13:58;;;;;;;15.48;5.07;;;;;;;31.08;9.67;101964.28;5026829;28;20033;-43
2022/03/19 09:16:24;;;;;;;8.75;4.82;;;;;;;31.13;9.76;101955.81;4979141;28;20042;-48
2022/03/19 09:18:50;;;;;;;12.00;4.95;;;;;;;31.09;9.57;101925.63;5029579;28;20059;-44
2022/03/19 09:21:17;;;;;;;22.27;7.20;;;;;;;31.24;9.54;101953.06;5026504;28;20094;-46
2022/03/19 09:23:45;;;;;;;13.93;4.60;;;;;;;31.59;9.60;101957.25;5029998;28;20140;-43
2022/03/19 09:26:14;;;;;;;18.35;5.38;;;;;;;31.67;9.44;101958.28;5027658;28;20039;-43
2022/03/19 09:28:40;;;;;;;11.63;5.72;;;;;;;32.08;9.26;101954.66;5028973;28;20041;-43
2022/03/19 09:31:06;;;;;;;11.40;4.47;;;;;;;32.11;8.90;101961.59;5028269;28;20200;-41
2022/03/19 09:33:32;;;;;;;12.45;4.50;;;;;;;32.17;8.97;101956.56;5029920;28;20037;-44
2022/03/19 09:36:01;;;;;;;8.98;4.82;;;;;;;32.44;8.68;101957.75;5029623;28;20050;-42
2022/03/19 09:38:28;;;;;;;11.30;8.05;;;;;;;32.48;8.80;101946.56;5028607;28;20044;-44
2022/03/19 09:40:56;;;;;;;15.48;4.80;;;;;;;32.52;8.79;101955.19;5029252;28;20045;-44
2022/03/19 09:43:22;;;;;;;;;;;;;;;32.47;9.11;101954.75;4997049;28;20326;-43
2022/03/19 09:45:49;;;;;;;18.15;5.63;;;;;;;32.82;8.78;101956.97;5012937;28;19913;-45
2022/03/19 09:48:15;;;;;;;12.98;5.22;;;;;;;32.64;8.68;101951.38;5012393;28;20132;-44
2022/03/19 09:50:41;;;;;;;12.15;5.43;;;;;;;32.48;8.87;101962.72;5032452;28;20131;-47
2022/03/19 09:53:09;;;;;;;10.25;4.32;;;;;;;32.68;8.97;101958.22;5016376;28;20044;-47
2022/03/19 09:55:39;;;;;;;7.82;4.90;;;;;;;32.90;8.77;101970.59;5015622;28;20045;-45
2022/03/19 09:58:05;;;;;;;6.00;4.72;;;;;;;33.10;8.31;101970.44;5029778;28;20049;-45
2022/03/19 10:00:31;;;;;;;25.60;6.80;;;;;;;33.05;8.87;101974.53;5014213;28;20156;-46
2022/03/19 10:03:00;;;;;;;8.85;4.88;;;;;;;33.09;8.58;101975.97;5014162;28;20045;-47
2022/03/19 10:08:40;;;;;;;11.65;5.25;;;;;;;33.30;8.42;101973.13;5016625;28;20076;-59
2022/03/19 10:11:13;;;;;;;8.18;5.10;;;;;;;33.18;8.42;101980.56;5000584;28;20045;-60
2022/03/19 10:13:42;;;;;;;9.27;4.90;;;;;;;33.01;8.76;101974.00;5032457;28;20037;-59
2022/03/19 10:16:09;;;;;;;11.73;5.00;;;;;;;32.93;8.59;101963.06;5015500;28;20180;-59
2022/03/19 10:18:35;;;;;;;13.10;5.22;;;;;;;32.85;8.74;101953.97;5031947;28;20136;-59
2022/03/19 10:21:12;;;;;;;13.60;5.55;;;;;;;33.07;8.82;101967.19;5033491;28;20365;-59
2022/03/19 10:23:42;;;;;;;10.45;5.50;;;;;;;33.25;8.95;101970.00;5032173;28;20037;-60
2022/03/19 10:26:22;;;;;;;7.68;4.88;;;;;;;33.18;8.63;101962.50;5031914;28;20104;-60
2022/03/19 10:29:05;;;;;;;8.43;4.20;;;;;;;33.69;8.15;101957.75;5031780;28;20033;-61
2022/03/19 10:31:35;;;;;;;7.63;4.00;;;;;;;34.03;7.92;101975.91;5048339;28;20068;-60
2022/03/19 10:34:01;;;;;;;7.88;5.00;;;;;;;33.98;7.90;101962.00;5048704;28;20046;-61
2022/03/19 10:36:35;;;;;;;11.13;5.45;;;;;;;33.89;8.34;101945.88;5032943;28;20760;-60
2022/03/19 10:39:07;;;;;;;12.23;4.75;;;;;;;34.17;7.82;101952.97;5048420;28;20045;-60
2022/03/19 10:41:36;;;;;;;10.88;3.90;;;;;;;34.29;8.15;101967.97;5015350;28;20124;-60
2022/03/19 10:44:16;;;;;;;5.22;3.08;;;;;;;34.74;7.34;101972.56;5033203;28;20044;-60
2022/03/19 10:46:49;;;;;;;8.18;3.85;;;;;;;34.65;7.54;101963.47;5032694;28;20095;-59
2022/03/19 10:49:17;;;;;;;14.23;3.88;;;;;;;34.58;7.54;101964.25;5031521;28;20598;-60
2022/03/19 10:51:48;;;;;;;9.30;3.30;;;;;;;34.61;7.86;101959.38;5032706;28;20093;-62
2022/03/19 10:54:14;;;;;;;4.10;3.60;;;;;;;34.70;8.13;101955.78;5048077;28;20071;-61
2022/03/19 10:56:44;;;;;;;9.63;4.32;;;;;;;34.81;7.91;101955.56;5031367;28;20095;-61
2022/03/19 10:59:10;;;;;;;7.82;5.10;;;;;;;34.40;7.65;101931.81;5031853;28;20073;-60
2022/03/19 11:01:37;;;;;;;7.22;3.55;;;;;;;34.58;7.79;101948.03;5031604;28;20084;-60
2022/03/19 11:04:05;;;;;;;8.15;3.78;;;;;;;34.87;7.67;101948.69;5015029;28;20056;-60
2022/03/19 11:06:38;;;;;;;;;;;;;;;34.83;7.90;101952.69;5033137;28;20493;-60
2022/03/19 11:09:06;;;;;;;8.90;3.80;;;;;;;34.97;7.59;101945.88;5032599;28;20019;-61
2022/03/19 11:11:57;;;;;;;5.30;3.40;;;;;;;34.94;7.58;101948.91;5032502;28;20041;-61
2022/03/19 11:14:25;;;;;;;5.72;3.03;;;;;;;34.98;7.58;101944.88;5014782;28;20037;-60
2022/03/19 11:17:25;;;;;;;4.70;3.20;;;;;;;34.90;7.40;101942.13;5014636;28;20053;-60
2022/03/19 11:19:52;;;;;;;4.28;2.88;;;;;;;34.95;7.58;101937.09;5032282;28;20037;-60
2022/03/19 11:26:01;;;;;;;7.45;3.40;;;;;;;35.39;7.41;101933.38;5031938;28;20049;-61
2022/03/19 11:29:05;;;;;;;6.38;3.42;;;;;;;35.43;7.20;101937.50;4982190;28;20519;-61
2022/03/19 11:31:31;;;;;;;8.63;3.55;;;;;;;35.48;7.35;101935.16;5052536;28;20041;-60
2022/03/19 11:33:59;;;;;;;4.43;3.20;;;;;;;35.38;7.20;101939.81;5030817;28;20068;-62
2022/03/19 11:36:25;;;;;;;6.00;3.03;;;;;;;35.49;6.93;101946.78;5031780;28;20564;-60
2022/03/19 11:38:53;;;;;;;3.33;3.00;;;;;;;35.34;6.97;101941.13;5013947;28;20099;-61
2022/03/19 11:41:22;;;;;;;6.38;2.85;;;;;;;35.05;7.34;101940.56;5031679;28;20043;-60
2022/03/19 11:43:49;;;;;;;2.88;2.60;;;;;;;34.45;7.58;101929.50;5030425;28;20041;-60
2022/03/19 11:46:15;;;;;;;9.93;3.03;;;;;;;34.08;7.62;101931.41;5031656;28;20176;-60